Quito, Ecuador

1:07 PM ECT en Agosto 29, 2014 (GMT -0500)
Yanahuaico | Change Station
CLOSE
Current Station
Estación meteorológica personal
Location: Quito, PICHINCHA
Altura: 8504 ft
Estaciones meteorológicas cercanas

Alt 8504 ft 0.36 °S, 78.50 °W | Updated 2 seconds ago

Mostly Cloudy
Muy nublado
70.5 ° F
Sensación térmica 77 ° F
N
1.0
Viento Variable Viento desde NO
Gusts 1.0 mph

Hoy
Alta -- | Baja -- ° F
--% Posibilidad de precipitaciones
Ayer
Alta -- | Baja -- ° F
Precip. -- pul
6:11 AM 6:18 PM
Creciente, 15% visible
Presión 30.42 pul
Visibilidad 6.2 Millas
Nubes Muy nublado 3000 ft
Índice de calor 77 ° F
Punto de rocío 50 ° F
Humedad 49%
Precipitaciones 0.00 pul
Espesor de la nieve No disponible.
UV 10 de una escala de 12
Polen No disponible.
Calidad del aire No disponible.
Flu Activity No disponible.
METAR SELT 291800Z 18019KT 9999 BKN030 16/09 Q1030

More Conditions Fewer Conditions

Presión 30.42 pul
Visibilidad 6.2 Millas
Nubes Muy nublado 3000 ft
Índice de calor 77 ° F
Punto de rocío 50 ° F
Humedad 49%
Precipitaciones 0.00 pul
Espesor de la nieve No disponible.
UV 10 de una escala de 12
Polen No disponible.
Calidad del aire No disponible.
Flu Activity No disponible.
METAR SELT 291800Z 18019KT 9999 BKN030 16/09 Q1030

More Conditions Fewer Conditions

10-Day Weather Forecast

Almanac

Astronomía

Aug. 29, 2014 Salida Puesta
Hora real 6:11 AM ECT 6:18 PM ECT
Crepúsculo civil 5:50 AM ECT 6:38 PM ECT
Crepúsculo náutico 5:26 AM ECT 7:03 PM ECT
Crepúsculo astronómico 5:02 AM ECT 7:27 PM ECT
Luna 8:58 AM ECT 9:20 PM ECT
Horas de luz 12h 48m
Horas de luz
12h 06m
Tomorrow will be 0m 0s shorter.
Creciente, 15% of the Moon is Illuminated
Hoy
Creciente
Sep 2
Cuarto creciente
Sep 8
Luna llena
Sep 15
Cuarto menguante
Sep 24
Nueva

Extremos de hoy

Máximos del país Bajas del país

Community

WunderPhotos

Upload Photos

1,748,307 ¡fotos cargadas!

Nearby

Calidad del aire

Not available.

Grosos de nieve

Not available.

Actividad de terremotos

Ciudad Distance Mag. Tiempo y dato
No hay informes recientes de la actividad sísmica.
Magnitud mínima muestra es 2,5.

Temperaturas de aguas costeras

Lugar Temperatura
Sin partes meteorológicos de las estaciones

Estaciones meteorológicas cercanas